Terminal Aerodrome Forecast
Issued by NWS

Home | Current Version | Previous Version | Text Only | Print | Product List | Glossary On
Versions: 1 2 3 4 5 6 7 8 9 10 11 12 13 14 15 16 17 18 19 20 21 22 23 24 25 26 27 28 29
000
FTUS43 KDLH 291300 AAA
TAFBRD
TAF AMD
KBRD 291327Z 2913/3012 08005KT 3SM -RA BR OVC010
      TEMPO 2913/2915 2SM TSRA BR OVC006CB
     FM291600 VRB03KT 6SM BR OVC008
     FM292000 VRB04KT P6SM BKN018 BKN050
     FM292200 VRB04KT P6SM VCSH SCT020 BKN050
     FM300600 VRB03KT 5SM BR OVC010
      TEMPO 3008/3012 3/4SM BR OVC004=

USA.gov is the U.S. government's official web portal to all federal, state and local government web resources and services.